Time;durP1;ratioP1;P1;durP2;ratioP2;P2;SDS_P1;SDS_P2;PMS_P1;PMS_P2;Temp;Humidity;BMP_temperature;BMP_pressure;BME280_temperature;BME280_humidity;BME280_pressure;Samples;Min_cycle;Max_cycle;Signal;HPM_P1;HPM_P2
2023/03/17 00:01:40;;;;;;;22.00;20.40;;;5.50;99.90;;;;;;6101159;23;20097;-74
2023/03/17 00:04:11;;;;;;;22.98;21.17;;;5.50;99.90;;;;;;6104820;23;20028;-76
2023/03/17 00:06:39;;;;;;;23.77;21.98;;;5.50;99.90;;;;;;6103398;23;20189;-74
2023/03/17 00:09:13;;;;;;;22.45;20.75;;;5.50;99.90;;;;;;6123144;23;20028;-74
2023/03/17 00:11:41;;;;;;;23.85;21.92;;;5.50;99.90;;;;;;6101086;23;20031;-75
2023/03/17 00:14:08;;;;;;;23.83;21.95;;;5.50;99.90;;;;;;6101964;23;20526;-75
2023/03/17 00:16:41;;;;;;;22.77;21.17;;;5.50;99.90;;;;;;6099589;23;20050;-76
2023/03/17 00:19:32;;;;;;;23.10;21.30;;;5.50;99.90;;;;;;6105544;23;20064;-76
2023/03/17 00:22:00;;;;;;;23.10;21.30;;;5.50;99.90;;;;;;6102835;23;20032;-74
2023/03/17 00:24:27;;;;;;;23.45;21.50;;;5.60;99.90;;;;;;6100469;23;20036;-76
2023/03/17 00:26:54;;;;;;;23.05;21.25;;;5.60;99.90;;;;;;6101951;23;20611;-76
2023/03/17 00:29:22;;;;;;;23.90;21.90;;;5.50;99.90;;;;;;6103483;23;20031;-75
2023/03/17 00:31:49;;;;;;;24.17;21.92;;;5.50;99.90;;;;;;6099595;23;20130;-74
2023/03/17 00:34:18;;;;;;;23.52;21.75;;;5.50;99.90;;;;;;6102517;23;20119;-74
2023/03/17 00:36:48;;;;;;;24.80;22.55;;;5.50;99.90;;;;;;6098580;23;20717;-78
2023/03/17 00:39:15;;;;;;;23.67;21.63;;;5.50;99.90;;;;;;6093582;23;20123;-76
2023/03/17 00:41:42;;;;;;;23.10;21.40;;;5.50;99.90;;;;;;6103907;23;20051;-76
2023/03/17 00:44:09;;;;;;;24.58;22.58;;;5.50;99.90;;;;;;6121299;23;20027;-75
2023/03/17 00:46:37;;;;;;;24.48;22.58;;;5.50;99.90;;;;;;6102365;23;20027;-76
2023/03/17 00:49:18;;;;;;;23.73;21.80;;;5.60;99.90;;;;;;6107718;23;20031;-77
2023/03/17 00:51:45;;;;;;;25.25;23.08;;;5.60;99.90;;;;;;6097458;23;20028;-77
2023/03/17 00:54:14;;;;;;;24.75;22.00;;;5.60;99.90;;;;;;6102845;23;20051;-74
2023/03/17 00:56:43;;;;;;;23.50;21.45;;;5.60;99.90;;;;;;6101907;23;20036;-76
2023/03/17 00:59:24;;;;;;;22.98;21.17;;;5.60;99.90;;;;;;6101690;23;20115;-73
2023/03/17 01:01:51;;;;;;;23.25;21.55;;;5.60;99.90;;;;;;6078122;23;20035;-76
2023/03/17 01:04:19;;;;;;;24.67;22.75;;;5.60;99.90;;;;;;6110340;23;20050;-74
2023/03/17 01:06:48;;;;;;;23.90;22.10;;;5.50;99.90;;;;;;6101266;23;20036;-74
2023/03/17 01:09:17;;;;;;;23.83;21.88;;;5.50;99.90;;;;;;6103473;23;20027;-75
2023/03/17 01:11:44;;;;;;;23.83;21.85;;;5.50;99.90;;;;;;6101004;23;20040;-76
2023/03/17 01:14:11;;;;;;;24.27;22.35;;;5.60;99.90;;;;;;6104221;23;20423;-76
2023/03/17 01:16:39;;;;;;;24.80;22.80;;;5.50;99.90;;;;;;6100888;23;20157;-76
2023/03/17 01:19:06;;;;;;;23.95;21.98;;;5.50;99.90;;;;;;6103483;23;20042;-75
2023/03/17 01:21:33;;;;;;;24.35;22.35;;;5.60;99.90;;;;;;6100518;23;20115;-76
2023/03/17 01:24:00;;;;;;;24.25;22.48;;;5.60;99.90;;;;;;6102330;23;20478;-74
2023/03/17 01:26:27;;;;;;;24.10;21.92;;;5.50;99.90;;;;;;6102279;23;20031;-76
2023/03/17 01:28:54;;;;;;;23.98;22.02;;;5.50;99.90;;;;;;6102935;23;20040;-76
2023/03/17 01:31:22;;;;;;;24.55;22.60;;;5.40;99.90;;;;;;6099494;23;20027;-78
2023/03/17 01:33:50;;;;;;;24.48;22.45;;;5.40;99.90;;;;;;6102055;23;20036;-78
2023/03/17 01:36:16;;;;;;;23.58;21.75;;;5.40;99.90;;;;;;6102130;23;20580;-78
2023/03/17 01:38:46;;;;;;;24.02;22.05;;;5.40;99.90;;;;;;6102934;23;20031;-74
2023/03/17 01:41:13;;;;;;;23.23;21.40;;;5.40;99.90;;;;;;6101658;23;20528;-74
2023/03/17 01:43:40;;;;;;;23.60;21.73;;;5.40;99.90;;;;;;6102161;23;20040;-76
2023/03/17 01:46:24;;;;;;;23.85;22.00;;;5.50;99.90;;;;;;6102149;23;20046;-75
2023/03/17 01:48:54;;;;;;;24.63;22.60;;;5.50;99.90;;;;;;6099054;23;20482;-77
2023/03/17 01:51:34;;;;;;;24.80;22.80;;;5.50;99.90;;;;;;6101135;23;20039;-77
2023/03/17 01:54:09;;;;;;;24.15;22.35;;;5.50;99.90;;;;;;6085072;23;20031;-77
2023/03/17 01:56:37;;;;;;;25.23;23.23;;;5.50;99.90;;;;;;6101971;23;20521;-75
2023/03/17 01:59:07;;;;;;;24.42;22.60;;;5.50;99.90;;;;;;6102807;23;20028;-76
2023/03/17 02:01:37;;;;;;;24.17;22.45;;;5.50;99.90;;;;;;6102028;23;20032;-75
2023/03/17 02:04:05;;;;;;;24.40;22.30;;;5.50;99.90;;;;;;6104437;23;20032;-77
2023/03/17 02:06:33;;;;;;;24.45;22.45;;;5.40;99.90;;;;;;6106751;23;20695;-76
2023/03/17 02:09:01;;;;;;;24.02;22.10;;;5.30;99.90;;;;;;6112775;23;20035;-76
2023/03/17 02:11:29;;;;;;;23.88;22.10;;;5.40;99.90;;;;;;6108455;23;20542;-77
2023/03/17 02:13:56;;;;;;;23.98;22.13;;;5.40;99.90;;;;;;6112658;23;20027;-76
2023/03/17 02:16:23;;;;;;;25.17;23.17;;;5.40;99.90;;;;;;6103169;23;20028;-75
2023/03/17 02:18:50;;;;;;;24.30;22.30;;;5.40;99.90;;;;;;6103333;23;20024;-77
2023/03/17 02:21:30;;;;;;;23.77;22.08;;;5.30;99.90;;;;;;6101743;23;20028;-75
2023/03/17 02:24:00;;;;;;;24.55;22.55;;;5.40;99.90;;;;;;6104219;23;20043;-77
2023/03/17 02:26:31;;;;;;;23.98;22.08;;;5.40;99.90;;;;;;6103823;23;20066;-74
2023/03/17 02:28:58;;;;;;;23.70;21.70;;;5.40;99.90;;;;;;6104040;23;20027;-74
2023/03/17 02:31:26;;;;;;;24.85;22.67;;;5.50;99.90;;;;;;6101893;23;20027;-75
2023/03/17 02:33:53;;;;;;;24.83;22.65;;;5.50;99.90;;;;;;6094916;23;20691;-75
2023/03/17 02:36:20;;;;;;;24.40;22.50;;;5.60;99.90;;;;;;6098812;23;20513;-77
2023/03/17 02:38:48;;;;;;;24.10;22.20;;;5.50;99.90;;;;;;6102863;23;20031;-77
2023/03/17 02:41:15;;;;;;;25.02;22.92;;;5.50;99.90;;;;;;6103605;23;20520;-74
2023/03/17 02:43:42;;;;;;;24.45;22.55;;;5.50;99.90;;;;;;6073573;23;20043;-76
2023/03/17 02:46:09;;;;;;;25.15;23.02;;;5.50;99.90;;;;;;6101365;23;20031;-74
2023/03/17 02:48:37;;;;;;;24.27;22.48;;;5.60;99.90;;;;;;6078770;23;20101;-75
2023/03/17 02:51:04;;;;;;;24.42;22.20;;;5.50;99.90;;;;;;6099687;23;20034;-75
2023/03/17 02:53:31;;;;;;;25.40;23.15;;;5.50;99.90;;;;;;6087118;23;20036;-77
2023/03/17 02:55:57;;;;;;;24.40;22.50;;;5.50;99.90;;;;;;6102294;23;20032;-74
2023/03/17 02:58:24;;;;;;;24.65;22.55;;;5.50;99.90;;;;;;6103123;23;20119;-76
2023/03/17 03:00:51;;;;;;;24.45;22.45;;;5.50;99.90;;;;;;6099661;23;20024;-77
2023/03/17 03:03:17;;;;;;;25.80;23.70;;;5.50;99.90;;;;;;6102579;23;20041;-73
2023/03/17 03:05:46;;;;;;;23.98;22.17;;;5.30;99.90;;;;;;6079285;23;20119;-78
2023/03/17 03:08:12;;;;;;;24.75;22.75;;;5.30;99.90;;;;;;6104687;23;20035;-75
2023/03/17 03:10:40;;;;;;;24.13;22.02;;;5.30;99.90;;;;;;6100623;23;20322;-76
2023/03/17 03:13:07;;;;;;;24.17;22.38;;;5.40;99.90;;;;;;6100139;23;20028;-76
2023/03/17 03:15:34;;;;;;;24.65;22.48;;;5.20;99.90;;;;;;6099473;23;20561;-77
2023/03/17 03:18:01;;;;;;;24.15;22.23;;;5.30;99.90;;;;;;6077524;23;20040;-76
2023/03/17 03:20:28;;;;;;;24.08;22.05;;;5.30;99.90;;;;;;6101105;23;20028;-75
2023/03/17 03:22:55;;;;;;;23.17;21.48;;;5.40;99.90;;;;;;6100520;23;20031;-77
2023/03/17 03:25:22;;;;;;;24.25;22.25;;;5.40;99.90;;;;;;6101346;23;20103;-74
2023/03/17 03:27:48;;;;;;;25.60;23.60;;;5.30;99.90;;;;;;6100809;23;20042;-74
2023/03/17 03:30:15;;;;;;;24.52;22.60;;;5.30;99.90;;;;;;6102522;23;20038;-76
2023/03/17 03:32:42;;;;;;;24.55;22.55;;;5.40;99.90;;;;;;6100067;23;20586;-75
2023/03/17 03:35:09;;;;;;;25.50;23.27;;;5.20;99.90;;;;;;6068924;23;20055;-78
2023/03/17 03:37:36;;;;;;;25.40;22.95;;;5.10;99.90;;;;;;6096589;23;20089;-77
2023/03/17 03:40:06;;;;;;;25.23;22.98;;;5.10;99.90;;;;;;6079499;23;20055;-73
2023/03/17 03:42:32;;;;;;;24.90;22.92;;;5.10;99.90;;;;;;6100320;23;20035;-74
2023/03/17 03:44:59;;;;;;;24.95;22.85;;;5.20;99.90;;;;;;6078111;23;20034;-76
2023/03/17 03:47:26;;;;;;;25.02;22.85;;;5.20;99.90;;;;;;6097556;23;20382;-74
2023/03/17 03:49:52;;;;;;;25.83;23.67;;;5.10;99.90;;;;;;6101425;23;20055;-72
2023/03/17 03:52:20;;;;;;;25.10;23.23;;;5.00;99.90;;;;;;6094908;23;20546;-75
2023/03/17 03:54:46;;;;;;;25.90;23.48;;;5.00;99.90;;;;;;6098606;23;20027;-75
2023/03/17 03:57:13;;;;;;;24.70;22.52;;;5.00;99.90;;;;;;6098320;23;20243;-72
2023/03/17 03:59:40;;;;;;;25.13;22.90;;;5.10;99.90;;;;;;6101750;23;20035;-73
2023/03/17 04:02:06;;;;;;;24.80;22.55;;;5.10;99.90;;;;;;6074072;23;20117;-74
2023/03/17 04:04:35;;;;;;;24.95;23.10;;;5.10;99.90;;;;;;6076682;23;20317;-72
2023/03/17 04:07:02;;;;;;;25.00;23.00;;;5.20;99.90;;;;;;6099987;23;20039;-72
2023/03/17 04:09:29;;;;;;;24.65;22.65;;;5.20;99.90;;;;;;6100954;23;20039;-71
2023/03/17 04:11:56;;;;;;;25.67;23.40;;;5.20;99.90;;;;;;6100013;23;20028;-73
2023/03/17 04:14:23;;;;;;;25.83;23.65;;;5.20;99.90;;;;;;6100975;23;20032;-74
2023/03/17 04:16:49;;;;;;;25.80;23.70;;;5.20;99.90;;;;;;6127963;23;20042;-71
2023/03/17 04:19:16;;;;;;;24.73;22.75;;;5.20;99.90;;;;;;6135472;23;20020;-71
2023/03/17 04:21:43;;;;;;;25.27;23.00;;;5.20;99.90;;;;;;6131336;23;20071;-70
2023/03/17 04:24:09;;;;;;;25.05;23.17;;;5.20;99.90;;;;;;6102308;23;20386;-74
2023/03/17 04:26:36;;;;;;;25.52;23.17;;;5.20;99.90;;;;;;6098957;23;20089;-75
2023/03/17 04:29:03;;;;;;;24.75;22.75;;;5.10;99.90;;;;;;6104501;23;20126;-73
2023/03/17 04:31:30;;;;;;;24.85;22.98;;;5.10;99.90;;;;;;6117861;23;20119;-74
2023/03/17 04:33:57;;;;;;;24.52;22.48;;;5.20;99.90;;;;;;6102412;23;20032;-74
2023/03/17 04:36:24;;;;;;;23.67;21.90;;;5.10;99.90;;;;;;6097570;23;20093;-72
2023/03/17 04:38:50;;;;;;;23.63;21.83;;;5.10;99.90;;;;;;6077310;23;20035;-73
2023/03/17 04:41:18;;;;;;;22.00;20.45;;;5.20;99.90;;;;;;6098761;23;20119;-75
2023/03/17 04:43:45;;;;;;;24.00;21.98;;;5.20;99.90;;;;;;6074187;23;20020;-76
2023/03/17 04:46:11;;;;;;;24.08;22.15;;;5.30;99.90;;;;;;6099007;23;20085;-74
2023/03/17 04:48:38;;;;;;;24.92;22.63;;;5.20;99.90;;;;;;6076232;23;20105;-76
2023/03/17 04:51:05;;;;;;;24.08;22.17;;;5.10;99.90;;;;;;6095832;23;20032;-75
2023/03/17 04:53:32;;;;;;;25.30;23.10;;;5.10;99.90;;;;;;6099543;23;20027;-74
2023/03/17 04:55:58;;;;;;;24.98;22.98;;;5.10;99.90;;;;;;6100350;23;20054;-75
2023/03/17 04:58:25;;;;;;;23.80;21.90;;;5.10;99.90;;;;;;6101283;23;20019;-73
2023/03/17 05:00:57;;;;;;;25.92;23.70;;;5.10;99.90;;;;;;6095856;23;20032;-72
2023/03/17 05:03:24;;;;;;;23.98;22.08;;;5.10;99.90;;;;;;6114754;23;20036;-73
2023/03/17 05:05:54;;;;;;;24.30;22.30;;;5.10;99.90;;;;;;6102019;23;20044;-73
2023/03/17 05:08:20;;;;;;;24.27;22.35;;;5.10;99.90;;;;;;6098339;23;20032;-74
2023/03/17 05:10:47;;;;;;;25.98;23.27;;;5.20;99.90;;;;;;6101443;23;20122;-76
2023/03/17 05:13:14;;;;;;;24.00;22.05;;;5.20;99.90;;;;;;6097060;23;20066;-73
2023/03/17 05:15:47;;;;;;;23.70;21.70;;;5.20;99.90;;;;;;6097105;23;20035;-76
2023/03/17 05:18:15;;;;;;;23.48;21.65;;;5.20;99.90;;;;;;6098059;23;20062;-73
2023/03/17 05:20:42;;;;;;;23.75;21.83;;;5.30;99.90;;;;;;6100962;23;20481;-74
2023/03/17 05:23:08;;;;;;;24.85;22.88;;;5.30;99.90;;;;;;6097766;23;20027;-74
2023/03/17 05:25:35;;;;;;;23.60;21.75;;;5.30;99.90;;;;;;6102260;23;20553;-77
2023/03/17 05:28:02;;;;;;;25.95;23.50;;;5.40;99.90;;;;;;6100296;23;20217;-72
2023/03/17 05:30:29;;;;;;;25.30;23.42;;;5.40;99.90;;;;;;6098418;23;20031;-71
2023/03/17 05:32:57;;;;;;;24.75;22.85;;;5.40;99.90;;;;;;6096325;23;20028;-74
2023/03/17 05:35:24;;;;;;;24.85;22.85;;;5.40;99.90;;;;;;6074600;23;20031;-74
2023/03/17 05:37:51;;;;;;;24.38;22.48;;;5.40;99.90;;;;;;6097702;23;20031;-72
2023/03/17 05:40:18;;;;;;;25.38;23.38;;;5.40;99.90;;;;;;6098568;23;20062;-75
2023/03/17 05:42:45;;;;;;;25.20;23.02;;;5.40;99.90;;;;;;6096915;23;20032;-75
2023/03/17 05:45:12;;;;;;;26.77;24.55;;;5.30;99.90;;;;;;6099935;23;20043;-74
2023/03/17 05:47:38;;;;;;;24.48;22.58;;;5.20;99.90;;;;;;6098406;23;20032;-76
2023/03/17 05:50:05;;;;;;;25.35;23.38;;;5.30;99.90;;;;;;6097461;23;20115;-73
2023/03/17 05:52:32;;;;;;;25.70;23.65;;;5.40;99.90;;;;;;6097943;23;20034;-73
2023/03/17 05:54:58;;;;;;;26.10;24.13;;;5.40;99.90;;;;;;6098813;23;20115;-76
2023/03/17 05:57:25;;;;;;;33.00;30.90;;;5.30;99.90;;;;;;6074179;23;20063;-73
2023/03/17 05:59:52;;;;;;;34.20;31.90;;;5.30;99.90;;;;;;6099245;23;20588;-71
2023/03/17 06:02:19;;;;;;;33.38;30.80;;;5.30;99.90;;;;;;6098940;23;20408;-72
2023/03/17 06:04:46;;;;;;;33.53;31.23;;;5.20;99.90;;;;;;6098273;23;20036;-73
2023/03/17 06:07:13;;;;;;;32.80;30.50;;;5.20;99.90;;;;;;6097669;23;20051;-74
2023/03/17 06:09:40;;;;;;;32.45;29.75;;;5.20;99.90;;;;;;6099993;23;20130;-74
2023/03/17 06:12:07;;;;;;;32.05;29.75;;;5.20;99.90;;;;;;6073999;23;20036;-75
2023/03/17 06:14:35;;;;;;;31.13;28.95;;;5.30;99.90;;;;;;6097952;23;20757;-76
2023/03/17 06:17:01;;;;;;;30.88;28.58;;;5.30;99.90;;;;;;6076256;23;20066;-75
2023/03/17 06:19:28;;;;;;;32.60;30.20;;;5.40;99.90;;;;;;6096488;23;20028;-75
2023/03/17 06:21:55;;;;;;;31.77;29.38;;;5.30;99.90;;;;;;6098801;23;20028;-77
2023/03/17 06:24:22;;;;;;;31.85;29.67;;;5.40;99.90;;;;;;6099076;23;20366;-77
2023/03/17 06:26:49;;;;;;;34.45;31.65;;;5.50;99.90;;;;;;6098503;23;20126;-74
2023/03/17 06:29:15;;;;;;;33.45;30.88;;;5.60;99.90;;;;;;6099908;23;20417;-75
2023/03/17 06:31:49;;;;;;;32.72;30.17;;;5.60;99.90;;;;;;6097406;23;20032;-74
2023/03/17 06:34:20;;;;;;;32.42;29.90;;;5.60;99.90;;;;;;6098542;23;20063;-75
2023/03/17 06:36:47;;;;;;;33.13;30.63;;;5.60;99.90;;;;;;6095096;23;20062;-75
2023/03/17 06:39:15;;;;;;;32.88;30.45;;;5.70;99.90;;;;;;6101546;23;20067;-74
2023/03/17 06:41:42;;;;;;;31.95;29.50;;;5.80;99.90;;;;;;6100026;23;20101;-77
2023/03/17 06:44:08;;;;;;;33.95;31.50;;;5.90;99.90;;;;;;6100962;23;20126;-75
2023/03/17 06:46:35;;;;;;;34.88;32.38;;;5.90;99.90;;;;;;6100470;23;20118;-74
2023/03/17 06:49:02;;;;;;;33.63;31.23;;;5.90;99.90;;;;;;6097840;23;20069;-73
2023/03/17 06:51:31;;;;;;;36.08;33.53;;;5.90;99.90;;;;;;6068783;23;20122;-75
2023/03/17 06:53:57;;;;;;;37.42;34.72;;;6.00;99.90;;;;;;6096427;23;20111;-75
2023/03/17 06:56:24;;;;;;;35.08;32.58;;;6.00;99.90;;;;;;6099423;23;20036;-75
2023/03/17 06:58:56;;;;;;;36.97;34.08;;;6.10;99.90;;;;;;6099898;23;20055;-72
2023/03/17 07:01:24;;;;;;;38.05;35.42;;;6.20;99.90;;;;;;6102255;23;20028;-75
2023/03/17 07:03:51;;;;;;;35.78;33.28;;;6.20;99.90;;;;;;6101076;23;20107;-74
2023/03/17 07:06:18;;;;;;;36.08;33.60;;;6.20;99.90;;;;;;6103149;23;20050;-75
2023/03/17 07:08:46;;;;;;;36.55;34.17;;;6.30;99.90;;;;;;6099202;23;20027;-74
2023/03/17 07:11:13;;;;;;;37.30;34.60;;;6.30;99.90;;;;;;6072787;23;20039;-73
2023/03/17 07:13:40;;;;;;;36.33;33.63;;;6.30;99.90;;;;;;6072741;23;20031;-75
2023/03/17 07:16:10;;;;;;;38.20;35.72;;;6.30;99.90;;;;;;6099428;23;20034;-74
2023/03/17 07:18:38;;;;;;;38.88;36.03;;;6.30;99.90;;;;;;6099209;23;20027;-74
2023/03/17 07:21:06;;;;;;;35.95;33.53;;;6.50;99.90;;;;;;6099548;23;20036;-72
2023/03/17 07:23:32;;;;;;;37.22;34.35;;;6.50;99.90;;;;;;6095179;23;20469;-73
2023/03/17 07:26:00;;;;;;;37.67;34.95;;;6.50;99.90;;;;;;6101043;23;20036;-74
2023/03/17 07:28:27;;;;;;;37.60;35.00;;;6.50;99.90;;;;;;6120760;23;20055;-78
2023/03/17 07:30:56;;;;;;;36.67;34.25;;;6.50;99.90;;;;;;6101606;23;20093;-74
2023/03/17 07:33:24;;;;;;;37.42;34.83;;;6.50;99.90;;;;;;6098901;23;20036;-75
2023/03/17 07:35:52;;;;;;;37.75;35.05;;;6.50;99.90;;;;;;6101752;23;20030;-76
2023/03/17 07:38:20;;;;;;;35.75;33.05;;;6.70;99.90;;;;;;6098308;23;20434;-76
2023/03/17 07:40:47;;;;;;;34.63;31.90;;;6.80;99.90;;;;;;6073619;23;20036;-75
2023/03/17 07:43:15;;;;;;;35.47;32.65;;;6.90;99.90;;;;;;6100158;23;20560;-75
2023/03/17 07:45:43;;;;;;;35.05;32.53;;;6.90;99.90;;;;;;6074208;23;20135;-75
2023/03/17 07:48:10;;;;;;;34.78;32.33;;;6.90;99.90;;;;;;6099827;23;20036;-75
2023/03/17 07:50:37;;;;;;;36.45;33.72;;;7.00;99.90;;;;;;6098463;23;20138;-75
2023/03/17 07:53:04;;;;;;;35.97;33.47;;;7.00;99.90;;;;;;6101122;23;20036;-75
2023/03/17 07:55:32;;;;;;;36.40;33.75;;;7.10;99.90;;;;;;6100272;23;20034;-76
2023/03/17 07:57:59;;;;;;;35.90;33.42;;;7.30;99.90;;;;;;6120340;23;20161;-74
2023/03/17 08:00:27;;;;;;;36.03;33.45;;;7.60;99.90;;;;;;6100489;23;20024;-74
2023/03/17 08:02:55;;;;;;;35.10;32.70;;;7.80;99.90;;;;;;6101581;23;20036;-76
2023/03/17 08:05:35;;;;;;;35.53;33.10;;;8.10;99.90;;;;;;6100439;23;20441;-74
2023/03/17 08:08:04;;;;;;;36.17;33.70;;;8.30;99.90;;;;;;6100145;23;20111;-75
2023/03/17 08:10:31;;;;;;;36.78;34.28;;;8.40;99.90;;;;;;6099000;23;20036;-75
2023/03/17 08:12:58;;;;;;;37.45;35.15;;;8.40;99.90;;;;;;6100800;23;20036;-74
2023/03/17 08:15:24;;;;;;;36.30;34.00;;;8.50;99.90;;;;;;6102037;23;20028;-76
2023/03/17 08:17:52;;;;;;;36.55;34.10;;;8.60;99.90;;;;;;6099481;23;20038;-75
2023/03/17 08:20:19;;;;;;;37.53;35.13;;;8.90;99.90;;;;;;6099066;23;20032;-75
2023/03/17 08:22:45;;;;;;;39.75;37.25;;;9.20;99.90;;;;;;6099028;23;20028;-75
2023/03/17 08:25:13;;;;;;;38.85;36.33;;;9.40;99.90;;;;;;6098346;23;20027;-74
2023/03/17 08:27:41;;;;;;;34.13;31.90;;;9.50;99.90;;;;;;6095950;23;20047;-75
2023/03/17 08:30:08;;;;;;;32.03;30.08;;;9.60;99.90;;;;;;6101189;23;20111;-72
2023/03/17 08:32:35;;;;;;;34.22;31.73;;;9.80;99.90;;;;;;6075032;23;20863;-72
2023/03/17 08:35:05;;;;;;;36.40;33.08;;;10.00;99.90;;;;;;6100649;23;20020;-73
2023/03/17 08:37:31;;;;;;;33.35;30.85;;;10.00;99.90;;;;;;6097465;23;20039;-72
2023/03/17 08:39:59;;;;;;;33.30;30.98;;;10.10;99.90;;;;;;6095147;23;20103;-71
2023/03/17 08:42:26;;;;;;;33.05;30.85;;;9.80;99.90;;;;;;6099444;23;20036;-73
2023/03/17 08:44:53;;;;;;;33.47;31.08;;;9.80;99.90;;;;;;6102635;23;20046;-72
2023/03/17 08:47:20;;;;;;;32.38;29.88;;;10.00;99.90;;;;;;6102874;23;20059;-72
2023/03/17 08:49:47;;;;;;;33.25;30.90;;;10.20;99.90;;;;;;6101828;23;20062;-72
2023/03/17 08:52:13;;;;;;;37.05;33.92;;;10.40;99.90;;;;;;6100325;23;20042;-72
2023/03/17 08:54:41;;;;;;;34.78;32.47;;;10.50;99.90;;;;;;6099662;23;20035;-72
2023/03/17 08:57:07;;;;;;;36.20;33.70;;;10.70;99.90;;;;;;6073656;23;20126;-72
2023/03/17 08:59:34;;;;;;;34.70;32.30;;;10.80;99.90;;;;;;6099876;23;20027;-73
2023/03/17 09:02:01;;;;;;;35.55;33.22;;;11.00;99.90;;;;;;6100587;23;20036;-74
2023/03/17 09:04:27;;;;;;;36.08;33.72;;;10.90;99.90;;;;;;6098607;23;20093;-72
2023/03/17 09:06:54;;;;;;;35.70;33.25;;;11.00;99.90;;;;;;6081882;23;20044;-72
2023/03/17 09:09:29;;;;;;;;;;;11.20;99.90;;;;;;6099832;23;20037;-72
2023/03/17 09:11:56;;;;;;;36.28;33.72;;;11.50;99.90;;;;;;6098836;23;19922;-72
2023/03/17 09:14:24;;;;;;;35.42;32.92;;;11.60;99.90;;;;;;6098251;23;20036;-73
2023/03/17 09:16:51;;;;;;;38.65;36.33;;;11.60;99.90;;;;;;6099436;23;20563;-71
2023/03/17 09:19:18;;;;;;;34.10;31.85;;;11.60;99.90;;;;;;6100984;23;20024;-73
2023/03/17 09:21:45;;;;;;;36.70;33.40;;;11.70;99.90;;;;;;6097360;23;20085;-72
2023/03/17 09:24:12;;;;;;;34.92;32.58;;;11.50;99.90;;;;;;6101255;23;20560;-73
2023/03/17 09:26:39;;;;;;;36.25;33.75;;;11.40;99.90;;;;;;6098089;23;20126;-72
2023/03/17 09:29:06;;;;;;;35.00;32.58;;;11.40;99.90;;;;;;6100576;23;20038;-74
2023/03/17 09:31:35;;;;;;;33.55;31.42;;;11.40;99.90;;;;;;6099690;23;20107;-72
2023/03/17 09:34:04;;;;;;;35.63;32.97;;;11.60;99.90;;;;;;6101656;23;20122;-73
2023/03/17 09:36:34;;;;;;;33.88;31.67;;;11.60;99.90;;;;;;6096135;23;20039;-73
2023/03/17 09:39:01;;;;;;;34.40;32.20;;;11.70;99.90;;;;;;6099970;23;20038;-72
2023/03/17 09:41:57;;;;;;;34.33;32.13;;;11.80;99.90;;;;;;6097693;23;20030;-73
2023/03/17 09:44:57;;;;;;;35.40;33.00;;;12.00;99.90;;;;;;6097429;23;20024;-73
2023/03/17 09:47:36;;;;;;;34.03;31.83;;;12.40;99.90;;;;;;6098393;23;20028;-74
2023/03/17 09:50:18;;;;;;;34.83;32.53;;;12.60;99.90;;;;;;6075830;23;20107;-73
2023/03/17 09:52:44;;;;;;;33.83;31.77;;;12.70;99.90;;;;;;6094291;23;20043;-71
2023/03/17 09:55:21;;;;;;;34.63;32.42;;;12.70;99.90;;;;;;6099661;23;20026;-72
2023/03/17 09:57:51;;;;;;;35.80;33.40;;;12.80;99.90;;;;;;6096984;23;20031;-71
2023/03/17 10:00:23;;;;;;;41.92;39.25;;;12.90;99.90;;;;;;6099885;23;20032;-73
2023/03/17 10:02:50;;;;;;;43.15;40.55;;;12.90;99.90;;;;;;6098197;23;20039;-72
2023/03/17 10:05:24;;;;;;;41.35;38.85;;;13.00;99.90;;;;;;6097918;23;20035;-71
2023/03/17 10:08:06;;;;;;;40.63;38.13;;;13.20;99.90;;;;;;6102602;23;20097;-73
2023/03/17 10:10:52;;;;;;;44.33;41.60;;;13.20;99.90;;;;;;6097905;23;20037;-72
2023/03/17 10:13:32;;;;;;;42.70;40.25;;;13.30;99.90;;;;;;6100305;23;20111;-74
2023/03/17 10:16:13;;;;;;;45.83;42.95;;;13.50;99.90;;;;;;6096363;23;20048;-72
2023/03/17 10:18:49;;;;;;;46.30;43.50;;;13.70;99.90;;;;;;6096184;23;20981;-76
2023/03/17 10:21:28;;;;;;;46.95;44.25;;;13.80;99.90;;;;;;6099358;23;20044;-74
2023/03/17 10:23:56;;;;;;;44.65;42.13;;;14.10;99.90;;;;;;6098986;23;20082;-72
2023/03/17 10:26:31;;;;;;;47.58;44.58;;;14.10;99.90;;;;;;6101094;23;20039;-73
2023/03/17 10:29:03;;;;;;;46.90;44.22;;;14.00;99.90;;;;;;6103158;23;20495;-74
2023/03/17 10:31:33;;;;;;;48.33;45.60;;;13.90;99.90;;;;;;6097518;23;20980;-73
2023/03/17 10:34:14;;;;;;;46.35;43.70;;;13.80;99.90;;;;;;6092064;23;20138;-73
2023/03/17 10:36:44;;;;;;;51.17;48.28;;;13.80;99.90;;;;;;6089651;23;20032;-73
2023/03/17 10:39:16;;;;;;;49.28;46.28;;;13.80;99.90;;;;;;6098919;23;20130;-71
2023/03/17 10:41:56;;;;;;;50.50;47.42;;;13.90;99.90;;;;;;6099363;23;20039;-73
2023/03/17 10:44:53;;;;;;;49.63;46.58;;;14.00;99.90;;;;;;6056285;23;20032;-72
2023/03/17 10:47:43;;;;;;;50.50;47.50;;;14.20;99.90;;;;;;6093982;23;20082;-70
2023/03/17 10:50:31;;;;;;;51.72;48.75;;;14.40;99.90;;;;;;6086008;23;20977;-73
2023/03/17 10:53:26;;;;;;;52.17;49.22;;;14.50;99.90;;;;;;6077060;23;20043;-74
2023/03/17 10:56:06;;;;;;;53.70;50.60;;;14.50;99.90;;;;;;6099895;23;21124;-72
2023/03/17 10:58:38;;;;;;;50.72;47.60;;;14.20;99.90;;;;;;6105072;23;20065;-75
2023/03/17 11:01:07;;;;;;;51.13;48.22;;;14.40;99.90;;;;;;6094088;23;20036;-73
2023/03/17 11:03:40;;;;;;;52.80;49.70;;;14.30;99.90;;;;;;6098993;23;20058;-71
2023/03/17 11:06:12;;;;;;;50.58;47.67;;;14.40;99.90;;;;;;6118816;23;20043;-74
2023/03/17 11:08:53;;;;;;;51.40;48.60;;;14.70;99.90;;;;;;6100034;23;20036;-72
2023/03/17 11:11:33;;;;;;;51.95;48.95;;;14.80;99.90;;;;;;6099535;23;20095;-75
2023/03/17 11:14:05;;;;;;;53.10;50.10;;;14.90;99.90;;;;;;6105444;23;20056;-74
2023/03/17 11:16:36;;;;;;;51.97;48.88;;;14.80;99.90;;;;;;6079485;23;20127;-72
2023/03/17 11:19:10;;;;;;;53.00;50.03;;;14.90;99.90;;;;;;6107652;23;20566;-73
2023/03/17 11:22:12;;;;;;;50.40;47.60;;;14.90;99.90;;;;;;6102983;23;20048;-74
2023/03/17 11:25:13;;;;;;;52.88;49.30;;;15.10;99.90;;;;;;6071882;23;20031;-73
2023/03/17 11:27:43;;;;;;;52.72;49.72;;;15.20;99.90;;;;;;6103054;23;20740;-74
2023/03/17 11:30:19;;;;;;;51.72;48.63;;;15.30;99.90;;;;;;6104148;23;20039;-74
2023/03/17 11:32:52;;;;;;;52.13;49.22;;;15.40;99.90;;;;;;6104225;23;20122;-74
2023/03/17 11:35:33;;;;;;;50.72;47.58;;;15.40;99.90;;;;;;6103916;23;20675;-74
2023/03/17 11:38:06;;;;;;;51.90;49.05;;;15.30;99.90;;;;;;6103162;23;20031;-74
2023/03/17 11:41:03;;;;;;;51.42;48.42;;;15.30;99.90;;;;;;6104928;23;20031;-74
2023/03/17 11:43:44;;;;;;;51.58;48.58;;;15.40;99.90;;;;;;6105312;23;20036;-74
2023/03/17 11:46:27;;;;;;;53.70;50.63;;;15.60;99.90;;;;;;6106172;23;20115;-73
2023/03/17 11:49:08;;;;;;;55.28;52.15;;;15.70;99.90;;;;;;6104862;23;20036;-74
2023/03/17 11:51:42;;;;;;;50.97;48.05;;;15.90;99.90;;;;;;6104139;23;20047;-77
2023/03/17 11:54:40;;;;;;;50.05;47.15;;;15.90;99.90;;;;;;6100289;23;20028;-73
2023/03/17 11:57:15;;;;;;;51.47;48.55;;;15.90;99.90;;;;;;6098165;23;20032;-73
2023/03/17 11:59:55;;;;;;;53.88;50.63;;;15.90;99.90;;;;;;6103793;23;20054;-74
2023/03/17 12:02:41;;;;;;;52.38;49.40;;;16.00;99.90;;;;;;6103664;23;20135;-75
2023/03/17 12:05:25;;;;;;;52.33;49.03;;;15.90;99.90;;;;;;6104123;23;20115;-74
2023/03/17 12:08:03;;;;;;;51.75;48.85;;;15.80;99.90;;;;;;6104943;23;20039;-72
2023/03/17 12:10:54;;;;;;;51.40;48.50;;;15.80;99.90;;;;;;6103130;23;20040;-75
2023/03/17 12:13:24;;;;;;;52.03;48.83;;;15.80;99.90;;;;;;6082884;23;20408;-75
2023/03/17 12:16:14;;;;;;;52.08;48.90;;;15.60;99.90;;;;;;6104637;23;20039;-74
2023/03/17 12:18:53;;;;;;;52.05;48.90;;;15.50;99.90;;;;;;6105976;23;20043;-74
2023/03/17 12:21:35;;;;;;;51.17;48.15;;;15.60;99.90;;;;;;6103380;23;20040;-74
2023/03/17 12:24:37;;;;;;;50.63;47.72;;;15.60;99.90;;;;;;6079215;23;20039;-75
2023/03/17 12:27:14;;;;;;;52.03;49.05;;;15.80;99.90;;;;;;6133786;23;20035;-75
2023/03/17 12:29:42;;;;;;;53.60;50.38;;;15.80;99.90;;;;;;6097641;23;20065;-75
2023/03/17 12:32:25;;;;;;;53.38;50.35;;;15.80;99.90;;;;;;6104970;23;20114;-74
2023/03/17 12:35:03;;;;;;;52.13;48.78;;;15.60;99.90;;;;;;6105700;23;20725;-74
2023/03/17 12:37:31;;;;;;;54.28;51.33;;;15.30;99.90;;;;;;6104416;23;20032;-74
2023/03/17 12:40:01;;;;;;;54.20;51.08;;;15.30;99.90;;;;;;6096876;23;20060;-74
2023/03/17 12:43:00;;;;;;;53.05;49.97;;;15.30;99.90;;;;;;6111025;23;20058;-75
2023/03/17 12:45:38;;;;;;;53.25;50.25;;;15.40;99.90;;;;;;6101925;23;20123;-76
2023/03/17 12:48:27;;;;;;;54.53;51.63;;;15.30;99.90;;;;;;6099344;23;20043;-72
2023/03/17 12:51:12;;;;;;;55.22;52.10;;;15.30;99.90;;;;;;6104743;23;20445;-76